createdAt,value
2018-01-24T00:00:58.036Z,8.45
2018-01-24T00:02:00.892Z,7.28
2018-01-24T00:03:04.969Z,7.37
2018-01-24T00:04:07.498Z,9.23
2018-01-24T00:05:09.966Z,7.93
2018-01-24T00:06:12.410Z,7.65
2018-01-24T00:07:14.878Z,7.68
2018-01-24T00:08:17.382Z,8.38
2018-01-24T00:09:20.640Z,8.02
2018-01-24T00:10:23.098Z,8.70
2018-01-24T00:11:26.159Z,7.90
2018-01-24T00:12:28.630Z,8.25
2018-01-24T00:13:31.110Z,7.87
2018-01-24T00:14:33.604Z,8.05
2018-01-24T00:15:36.103Z,8.40
2018-01-24T00:16:38.572Z,8.13
2018-01-24T00:17:41.058Z,8.00
2018-01-24T00:18:43.608Z,8.40
2018-01-24T00:19:46.133Z,8.73
2018-01-24T00:20:48.602Z,8.48
2018-01-24T00:21:51.158Z,8.10
2018-01-24T00:22:53.622Z,9.00
2018-01-24T00:23:56.196Z,8.00
2018-01-24T00:24:59.812Z,8.45
2018-01-24T00:26:02.254Z,9.05
2018-01-24T00:27:05.485Z,8.52
2018-01-24T00:28:07.969Z,9.27
2018-01-24T00:29:10.482Z,8.73
2018-01-24T00:30:12.975Z,9.00
2018-01-24T00:31:15.426Z,8.90
2018-01-24T00:32:17.984Z,9.95
2018-01-24T00:33:21.281Z,9.45
2018-01-24T00:34:23.766Z,9.73
2018-01-24T00:35:26.390Z,10.00
2018-01-24T00:36:28.846Z,9.73
2018-01-24T00:37:32.078Z,11.02
2018-01-24T00:38:34.563Z,11.55
2018-01-24T00:39:37.088Z,10.45
2018-01-24T00:40:39.567Z,11.12
2018-01-24T00:41:42.898Z,10.80
2018-01-24T00:42:45.386Z,11.15
2018-01-24T00:43:47.927Z,12.10
2018-01-24T00:44:50.533Z,11.15
2018-01-24T00:45:53.687Z,10.98
2018-01-24T00:46:56.172Z,12.05
2018-01-24T00:47:59.427Z,12.35
2018-01-24T00:49:01.911Z,12.13
2018-01-24T00:50:04.383Z,12.68
2018-01-24T00:51:06.890Z,12.70
2018-01-24T00:52:10.173Z,13.93
2018-01-24T00:53:12.654Z,12.65
2018-01-24T00:54:15.883Z,11.82
2018-01-24T00:55:19.142Z,12.80
2018-01-24T00:56:22.395Z,13.13
2018-01-24T00:57:24.914Z,13.18
2018-01-24T00:58:27.443Z,13.35
2018-01-24T00:59:29.927Z,13.35
2018-01-24T01:00:34.651Z,13.98
2018-01-24T01:01:37.120Z,14.40
2018-01-24T01:02:39.602Z,13.20
2018-01-24T01:03:42.082Z,13.90
2018-01-24T01:04:44.828Z,15.55
2018-01-24T01:05:48.091Z,14.30
2018-01-24T01:06:50.546Z,14.77
2018-01-24T01:07:53.029Z,13.80
2018-01-24T01:08:56.267Z,14.02
2018-01-24T01:09:59.498Z,14.80
2018-01-24T01:11:02.061Z,13.15
2018-01-24T01:12:04.526Z,13.62
2018-01-24T01:13:07.001Z,13.90
2018-01-24T01:14:10.355Z,14.63
2018-01-24T01:15:12.830Z,13.95
2018-01-24T01:16:15.309Z,14.45
2018-01-24T01:17:17.850Z,14.20
2018-01-24T01:18:20.309Z,15.02
2018-01-24T01:19:23.550Z,14.95
2018-01-24T01:20:26.116Z,14.05
2018-01-24T01:21:28.591Z,15.52
2018-01-24T01:22:31.089Z,14.65
2018-01-24T01:23:33.546Z,15.05
2018-01-24T01:24:36.045Z,15.65
2018-01-24T01:25:38.541Z,15.75
2018-01-24T01:26:41.003Z,15.88
2018-01-24T01:27:43.551Z,15.00
2018-01-24T01:28:46.117Z,15.35
2018-01-24T01:29:49.342Z,16.30
2018-01-24T01:30:52.576Z,16.48
2018-01-24T01:31:55.045Z,16.87
2018-01-24T01:32:57.526Z,16.55
2018-01-24T01:34:00.770Z,16.17
2018-01-24T01:35:04.042Z,17.67
2018-01-24T01:36:06.684Z,15.05
2018-01-24T01:37:09.186Z,16.00
2018-01-24T01:38:11.640Z,16.42
2018-01-24T01:39:14.135Z,16.02
2018-01-24T01:40:16.678Z,16.45
2018-01-24T01:41:19.239Z,16.42
2018-01-24T01:42:21.742Z,16.55
2018-01-24T01:43:24.220Z,15.93
2018-01-24T01:44:27.454Z,16.35
2018-01-24T01:45:30.754Z,17.23
2018-01-24T01:46:33.244Z,16.67
2018-01-24T01:47:36.499Z,17.05
2018-01-24T01:48:38.958Z,17.60
2018-01-24T01:49:41.440Z,16.23
2018-01-24T01:50:43.925Z,17.15
2018-01-24T01:51:46.406Z,16.70
2018-01-24T01:52:48.903Z,17.00
2018-01-24T01:53:52.119Z,15.95
2018-01-24T01:54:54.632Z,15.77
2018-01-24T01:55:57.100Z,16.10
2018-01-24T01:56:59.575Z,16.33
2018-01-24T01:58:02.072Z,14.93
2018-01-24T01:59:04.564Z,17.12
2018-01-24T02:00:07.060Z,16.65
2018-01-24T02:01:09.518Z,16.62
2018-01-24T02:02:12.779Z,15.73
2018-01-24T02:03:16.044Z,15.35
2018-01-24T02:04:18.522Z,15.98
2018-01-24T02:05:21.773Z,16.00
2018-01-24T02:06:25.068Z,15.80
2018-01-24T02:07:27.570Z,16.55
2018-01-24T02:08:30.068Z,17.15
2018-01-24T02:09:33.278Z,16.15
2018-01-24T02:10:35.860Z,16.55
2018-01-24T02:11:38.305Z,15.73
2018-01-24T02:12:40.818Z,15.82
2018-01-24T02:13:43.283Z,15.80
2018-01-24T02:14:45.750Z,15.20
2018-01-24T02:15:48.216Z,16.20
2018-01-24T02:16:50.766Z,16.08
2018-01-24T02:17:53.330Z,15.73
2018-01-24T02:18:55.800Z,15.57
2018-01-24T02:19:58.286Z,14.82
2018-01-24T02:21:00.779Z,14.60
2018-01-24T02:22:04.034Z,15.70
2018-01-24T02:23:07.613Z,14.73
2018-01-24T02:24:10.075Z,14.00
2018-01-24T02:25:12.529Z,16.00
2018-01-24T02:26:15.786Z,14.35
2018-01-24T02:27:18.244Z,15.43
2018-01-24T02:28:20.755Z,15.13
2018-01-24T02:29:23.240Z,15.93
2018-01-24T02:30:25.749Z,14.65
2018-01-24T02:31:28.259Z,13.55
2018-01-24T02:32:30.735Z,14.77
2018-01-24T02:33:33.987Z,14.60
2018-01-24T02:34:36.454Z,14.57
2018-01-24T02:35:38.930Z,15.13
2018-01-24T02:36:41.476Z,14.13
2018-01-24T02:37:43.938Z,15.35
2018-01-24T02:38:58.304Z,14.20
2018-01-24T02:40:00.800Z,14.75
2018-01-24T02:41:04.036Z,15.45
2018-01-24T02:42:07.266Z,14.50
2018-01-24T02:43:10.522Z,14.80
2018-01-24T02:44:13.783Z,14.32
2018-01-24T02:45:16.248Z,13.50
2018-01-24T02:46:18.723Z,14.70
2018-01-24T02:47:21.266Z,14.05
2018-01-24T02:48:23.746Z,15.07
2018-01-24T02:49:26.990Z,14.52
2018-01-24T02:50:30.229Z,13.82
2018-01-24T02:51:33.459Z,15.00
2018-01-24T02:52:35.920Z,14.25
2018-01-24T02:53:38.412Z,14.40
2018-01-24T02:54:40.900Z,14.32
2018-01-24T02:55:43.356Z,14.50
2018-01-24T02:56:45.813Z,14.77
2018-01-24T02:57:48.281Z,13.62
2018-01-24T02:58:50.776Z,13.95
2018-01-24T02:59:53.323Z,13.93
2018-01-24T03:00:55.843Z,13.90
2018-01-24T03:01:58.333Z,15.20
2018-01-24T03:03:01.566Z,13.90
2018-01-24T03:04:04.120Z,13.52
2018-01-24T03:05:06.648Z,13.98
2018-01-24T03:06:09.880Z,14.77
2018-01-24T03:07:13.112Z,13.48
2018-01-24T03:08:16.517Z,13.88
2018-01-24T03:09:18.964Z,14.30
2018-01-24T03:10:21.709Z,13.85
2018-01-24T03:11:24.962Z,13.90
2018-01-24T03:12:28.219Z,14.60
2018-01-24T03:13:30.690Z,13.68
2018-01-24T03:14:33.268Z,13.88
2018-01-24T03:15:35.727Z,13.45
2018-01-24T03:16:38.226Z,13.75
2018-01-24T03:17:41.451Z,15.20
2018-01-24T03:18:44.694Z,13.95
2018-01-24T03:19:48.445Z,14.27
2018-01-24T03:20:51.664Z,13.68
2018-01-24T03:21:54.164Z,14.10
2018-01-24T03:22:57.042Z,14.50
2018-01-24T03:24:00.248Z,13.07
2018-01-24T03:25:02.736Z,13.60
2018-01-24T03:26:05.260Z,14.10
2018-01-24T03:27:07.760Z,14.20
2018-01-24T03:28:11.002Z,13.38
2018-01-24T03:29:14.229Z,12.95
2018-01-24T03:30:16.777Z,13.50
2018-01-24T03:31:19.236Z,13.93
2018-01-24T03:32:21.778Z,13.70
2018-01-24T03:33:24.293Z,14.05
2018-01-24T03:34:27.333Z,12.65
2018-01-24T03:35:29.930Z,14.05
2018-01-24T03:36:32.422Z,13.00
2018-01-24T03:37:34.907Z,13.38
2018-01-24T03:38:37.510Z,13.60
2018-01-24T03:39:39.977Z,14.15
2018-01-24T03:40:42.557Z,11.90
2018-01-24T03:41:45.006Z,13.13
2018-01-24T03:42:47.491Z,13.57
2018-01-24T03:43:50.725Z,12.25
2018-01-24T03:44:53.236Z,12.60
2018-01-24T03:45:55.754Z,12.73
2018-01-24T03:46:58.264Z,12.45
2018-01-24T03:48:00.772Z,11.65
2018-01-24T03:49:03.711Z,11.75
2018-01-24T03:50:06.197Z,11.70
2018-01-24T03:51:09.418Z,11.93
2018-01-24T03:52:12.007Z,11.40
2018-01-24T03:53:14.488Z,11.70
2018-01-24T03:54:17.734Z,13.27
2018-01-24T03:55:20.973Z,12.32
2018-01-24T03:56:24.194Z,10.68
2018-01-24T03:57:26.662Z,11.10
2018-01-24T03:58:29.190Z,11.48
2018-01-24T03:59:31.714Z,11.15
2018-01-24T04:00:34.195Z,10.82
2018-01-24T04:01:37.018Z,9.63
2018-01-24T04:02:39.490Z,11.20
2018-01-24T04:03:42.733Z,10.50
2018-01-24T04:04:45.247Z,9.38
2018-01-24T04:05:48.495Z,9.90
2018-01-24T04:06:51.782Z,9.60
2018-01-24T04:07:54.259Z,10.02
2018-01-24T04:08:57.495Z,9.88
2018-01-24T04:10:00.748Z,10.18
2018-01-24T04:11:03.207Z,8.90
2018-01-24T04:12:05.731Z,10.15
2018-01-24T04:13:08.187Z,9.65
2018-01-24T04:14:10.778Z,10.23
2018-01-24T04:15:13.264Z,9.50
2018-01-24T04:16:16.492Z,8.52
2018-01-24T04:17:18.963Z,9.38
2018-01-24T04:18:21.467Z,8.90
2018-01-24T04:19:24.043Z,9.75
2018-01-24T04:20:26.592Z,8.77
2018-01-24T04:21:29.187Z,8.48
2018-01-24T04:22:31.648Z,8.48
2018-01-24T04:23:34.974Z,8.85
2018-01-24T04:24:37.554Z,8.32
2018-01-24T04:25:40.066Z,9.13
2018-01-24T04:26:42.528Z,9.02
2018-01-24T04:27:45.146Z,8.32
2018-01-24T04:28:47.654Z,8.93
2018-01-24T04:29:50.121Z,9.02
2018-01-24T04:30:52.601Z,8.80
2018-01-24T04:31:55.127Z,8.77
2018-01-24T04:32:58.399Z,8.23
2018-01-24T04:34:00.969Z,8.05
2018-01-24T04:35:03.447Z,8.50
2018-01-24T04:36:05.927Z,8.43
2018-01-24T04:37:09.180Z,8.82
2018-01-24T04:38:11.658Z,8.30
2018-01-24T04:39:14.137Z,9.18
2018-01-24T04:40:16.640Z,8.60
2018-01-24T04:41:19.903Z,8.75
2018-01-24T04:42:22.371Z,8.32
2018-01-24T04:43:24.857Z,8.98
2018-01-24T04:44:27.349Z,8.15
2018-01-24T04:45:30.572Z,8.40
2018-01-24T04:46:33.142Z,8.05
2018-01-24T04:47:35.616Z,8.23
2018-01-24T04:48:38.841Z,8.32
2018-01-24T04:49:41.339Z,7.70
2018-01-24T04:50:43.802Z,8.40
2018-01-24T04:51:46.267Z,8.43
2018-01-24T04:52:49.498Z,8.82
2018-01-24T04:53:52.006Z,8.40
2018-01-24T04:54:54.955Z,7.70
2018-01-24T04:55:57.428Z,7.72
2018-01-24T04:56:59.938Z,7.47
2018-01-24T04:58:02.406Z,8.05
2018-01-24T04:59:04.866Z,8.60
2018-01-24T05:00:08.105Z,8.40
2018-01-24T05:01:10.588Z,7.95
2018-01-24T05:02:13.179Z,7.68
2018-01-24T05:03:15.629Z,7.75
2018-01-24T05:04:18.208Z,8.10
2018-01-24T05:05:21.430Z,8.07
2018-01-24T05:06:23.901Z,7.72
2018-01-24T05:07:26.392Z,7.60
2018-01-24T05:08:28.881Z,8.80
2018-01-24T05:09:31.382Z,8.00
2018-01-24T05:10:33.844Z,7.80
2018-01-24T05:11:36.335Z,8.38
2018-01-24T05:12:38.840Z,8.18
2018-01-24T05:13:42.087Z,7.07
2018-01-24T05:14:45.321Z,8.30
2018-01-24T05:15:48.579Z,7.95
2018-01-24T05:16:51.042Z,9.23
2018-01-24T05:17:53.554Z,8.00
2018-01-24T05:18:56.080Z,7.72
2018-01-24T05:19:58.542Z,8.10
2018-01-24T05:21:12.799Z,7.65
2018-01-24T05:22:15.289Z,7.57
2018-01-24T05:23:18.572Z,8.18
2018-01-24T05:24:21.133Z,8.40
2018-01-24T05:25:23.605Z,7.37
2018-01-24T05:26:26.069Z,8.60
2018-01-24T05:27:28.858Z,8.35
2018-01-24T05:28:31.324Z,7.72
2018-01-24T05:29:33.803Z,8.63
2018-01-24T05:30:36.290Z,8.68
2018-01-24T05:31:40.287Z,8.05
2018-01-24T05:32:43.067Z,7.78
2018-01-24T05:33:45.569Z,8.52
2018-01-24T05:34:48.014Z,8.02
2018-01-24T05:35:50.500Z,7.90
2018-01-24T05:36:52.969Z,8.38
2018-01-24T05:37:55.438Z,7.82
2018-01-24T05:38:59.320Z,8.68
2018-01-24T05:40:01.822Z,9.00
2018-01-24T05:41:04.351Z,8.55
2018-01-24T05:42:06.799Z,8.32
2018-01-24T05:43:09.261Z,8.75
2018-01-24T05:44:11.726Z,8.20
2018-01-24T05:45:14.243Z,9.10
2018-01-24T05:46:16.782Z,8.77
2018-01-24T05:47:19.245Z,9.18
2018-01-24T05:48:21.723Z,9.13
2018-01-24T05:49:24.808Z,8.93
2018-01-24T05:50:27.311Z,9.45
2018-01-24T05:51:29.761Z,9.10
2018-01-24T05:52:32.211Z,9.05
2018-01-24T05:53:34.661Z,9.25
2018-01-24T05:54:37.170Z,9.38
2018-01-24T05:55:40.391Z,9.30
2018-01-24T06:41:09.979Z,11.65
2018-01-24T06:42:12.656Z,13.45
2018-01-24T06:43:15.138Z,13.68
2018-01-24T06:44:17.650Z,13.93
2018-01-24T06:45:20.178Z,13.80
2018-01-24T06:46:22.656Z,13.40
2018-01-24T06:47:25.138Z,12.25
2018-01-24T06:48:27.659Z,13.55
2018-01-24T06:49:30.129Z,13.15
2018-01-24T06:50:32.603Z,12.65
2018-01-24T06:51:35.845Z,12.88
2018-01-24T06:52:39.092Z,12.30
2018-01-24T06:53:42.334Z,12.48
2018-01-24T06:54:44.838Z,12.37
2018-01-24T06:55:48.068Z,11.77
2018-01-24T06:56:50.532Z,11.27
2018-01-24T06:57:53.055Z,12.50
2018-01-24T06:58:55.518Z,11.65
2018-01-24T06:59:57.998Z,10.40
2018-01-24T07:01:00.510Z,10.70
2018-01-24T07:02:03.737Z,10.80
2018-01-24T07:03:06.973Z,10.90
2018-01-24T07:04:09.538Z,11.85
2018-01-24T07:05:12.003Z,11.02
2018-01-24T07:06:14.670Z,10.82
2018-01-24T07:07:17.941Z,10.52
2018-01-24T07:08:20.469Z,11.85
2018-01-24T07:09:22.987Z,11.40
2018-01-24T07:10:25.453Z,11.25
2018-01-24T07:11:27.973Z,10.13
2018-01-24T07:12:42.384Z,11.52
2018-01-24T07:13:56.841Z,10.75
2018-01-24T07:14:59.358Z,10.65
2018-01-24T07:16:01.828Z,11.32
2018-01-24T07:17:04.348Z,11.38
2018-01-24T07:18:06.828Z,11.55
2018-01-24T07:19:09.297Z,10.10
2018-01-24T07:20:11.787Z,10.48
2018-01-24T07:21:14.276Z,10.30
2018-01-24T07:22:16.760Z,10.00
2018-01-24T07:23:19.240Z,10.93
2018-01-24T07:24:22.482Z,9.93
2018-01-24T07:25:25.709Z,10.23
2018-01-24T07:26:28.163Z,10.35
2018-01-24T07:27:30.694Z,10.10
2018-01-24T07:28:33.162Z,9.85
2018-01-24T07:29:35.646Z,10.05
2018-01-24T07:30:38.211Z,9.35
2018-01-24T07:31:41.812Z,9.55
2018-01-24T07:32:45.044Z,9.50
2018-01-24T07:33:48.268Z,10.18
2018-01-24T07:34:50.777Z,10.48
2018-01-24T07:35:53.246Z,9.57
2018-01-24T07:36:55.823Z,9.25
2018-01-24T07:37:58.281Z,9.45
2018-01-24T07:39:01.510Z,9.25
2018-01-24T07:40:03.996Z,8.80
2018-01-24T07:41:06.473Z,10.18
2018-01-24T07:42:09.733Z,9.35
2018-01-24T07:43:12.261Z,8.13
2018-01-24T07:44:15.526Z,11.10
2018-01-24T07:45:17.990Z,8.88
2018-01-24T07:46:20.445Z,8.80
2018-01-24T07:47:23.674Z,9.18
2018-01-24T07:48:26.939Z,8.90
2018-01-24T07:49:29.466Z,8.65
2018-01-24T07:50:31.989Z,8.10
2018-01-24T07:51:34.472Z,8.73
2018-01-24T07:52:37.025Z,9.07
2018-01-24T07:53:39.488Z,9.90
2018-01-24T07:54:41.969Z,8.90
2018-01-24T07:55:45.190Z,9.93
2018-01-24T07:56:47.689Z,8.77
2018-01-24T07:57:50.158Z,8.80
2018-01-24T07:58:52.647Z,8.07
2018-01-24T07:59:55.120Z,8.73
2018-01-24T08:00:57.570Z,8.20
2018-01-24T08:02:00.087Z,8.13
2018-01-24T08:03:02.547Z,7.12
2018-01-24T08:04:05.283Z,7.80
2018-01-24T08:05:07.738Z,6.60
2018-01-24T08:06:10.976Z,6.70
2018-01-24T08:07:14.203Z,6.43
2018-01-24T08:08:16.675Z,6.50
2018-01-24T08:09:19.136Z,6.85
2018-01-24T08:10:21.617Z,7.18
2018-01-24T08:11:24.133Z,6.72
2018-01-24T08:12:27.352Z,7.05
2018-01-24T08:13:29.811Z,6.62
2018-01-24T08:14:32.287Z,6.50
2018-01-24T08:15:34.733Z,7.62
2018-01-24T08:16:37.995Z,6.55
2018-01-24T08:17:41.735Z,6.75
2018-01-24T08:18:45.052Z,6.47
2018-01-24T08:19:47.564Z,6.82
2018-01-24T08:20:50.027Z,6.53
2018-01-24T08:21:52.486Z,6.53
2018-01-24T08:22:55.001Z,6.57
2018-01-24T08:23:57.486Z,6.50
2018-01-24T08:24:59.948Z,6.15
2018-01-24T08:26:02.521Z,7.10
2018-01-24T08:27:05.011Z,6.60
2018-01-24T08:28:07.490Z,6.87
2018-01-24T08:29:10.817Z,7.20
2018-01-24T08:30:13.268Z,5.82
2018-01-24T08:31:16.526Z,6.70
2018-01-24T08:32:19.762Z,6.62
2018-01-24T08:33:22.991Z,6.50
2018-01-24T08:34:25.490Z,6.57
2018-01-24T08:35:27.975Z,6.90
2018-01-24T08:36:30.827Z,5.47
2018-01-24T08:37:33.346Z,6.22
2018-01-24T08:38:35.859Z,5.97
2018-01-24T08:39:38.361Z,6.32
2018-01-24T08:40:41.605Z,7.00
2018-01-24T08:41:44.858Z,6.68
2018-01-24T08:42:48.094Z,6.30
2018-01-24T08:43:51.327Z,6.25
2018-01-24T08:44:54.600Z,5.78
2018-01-24T08:45:57.069Z,5.85
2018-01-24T08:46:59.546Z,6.30
2018-01-24T08:48:02.098Z,6.20
2018-01-24T08:49:04.564Z,5.90
2018-01-24T08:50:07.051Z,6.22
2018-01-24T08:51:09.513Z,5.70
2018-01-24T08:52:12.067Z,6.07
2018-01-24T08:53:15.422Z,5.40
2018-01-24T08:54:17.890Z,5.15
2018-01-24T08:55:20.378Z,4.95
2018-01-24T08:56:22.829Z,5.35
2018-01-24T08:57:26.230Z,5.00
2018-01-24T08:58:29.553Z,4.93
2018-01-24T08:59:32.015Z,5.15
2018-01-24T09:00:51.938Z,4.80
2018-01-24T09:02:11.961Z,4.60
2018-01-24T09:03:32.160Z,5.12
2018-01-24T09:04:53.082Z,4.72
2018-01-24T09:06:13.140Z,4.32
2018-01-24T09:07:34.160Z,4.78
2018-01-24T09:08:54.310Z,5.30
2018-01-24T09:10:15.239Z,4.47
2018-01-24T09:11:36.028Z,5.05
2018-01-24T09:12:56.096Z,4.80
2018-01-24T09:14:16.241Z,4.82
2018-01-24T09:15:36.487Z,5.00
2018-01-24T09:16:57.616Z,5.40
2018-01-24T09:18:17.637Z,4.82
2018-01-24T09:19:37.970Z,4.80
2018-01-24T09:20:58.185Z,4.45
2018-01-24T09:22:18.204Z,4.80
2018-01-24T09:23:22.913Z,4.90
2018-01-24T09:24:35.958Z,5.03
2018-01-24T09:25:38.506Z,5.03
2018-01-24T09:26:41.759Z,4.82
2018-01-24T09:27:45.019Z,5.25
2018-01-24T09:28:47.492Z,4.72
2018-01-24T09:29:50.033Z,4.78
2018-01-24T09:30:52.491Z,4.75
2018-01-24T09:31:54.985Z,4.70
2018-01-24T09:32:57.446Z,4.40
2018-01-24T09:33:59.892Z,5.20
2018-01-24T09:35:02.376Z,4.82
2018-01-24T09:36:05.633Z,4.80
2018-01-24T09:37:08.157Z,4.65
2018-01-24T09:38:10.635Z,4.65
2018-01-24T09:39:13.214Z,4.30
2018-01-24T09:40:15.683Z,4.72
2018-01-24T09:41:18.189Z,4.90
2018-01-24T09:42:21.450Z,4.93
2018-01-24T09:43:24.548Z,4.20
2018-01-24T09:44:27.026Z,4.93
2018-01-24T09:45:30.253Z,4.95
2018-01-24T09:46:32.735Z,4.15
2018-01-24T09:47:35.208Z,4.53
2018-01-24T09:48:37.809Z,4.62
2018-01-24T09:49:41.188Z,4.70
2018-01-24T09:50:43.750Z,4.37
2018-01-24T09:51:47.014Z,4.20
2018-01-24T09:52:49.622Z,3.85
2018-01-24T09:53:52.162Z,4.25
2018-01-24T09:54:54.674Z,4.45
2018-01-24T09:55:57.139Z,4.07
2018-01-24T09:56:59.827Z,4.18
2018-01-24T09:58:02.327Z,4.40
2018-01-24T09:59:05.091Z,4.18
2018-01-24T10:00:07.577Z,4.25
2018-01-24T10:01:10.121Z,3.95
2018-01-24T10:02:12.556Z,4.37
2018-01-24T10:03:15.803Z,3.90
2018-01-24T10:04:18.482Z,4.40
2018-01-24T10:05:20.966Z,4.12
2018-01-24T10:06:24.366Z,3.90
2018-01-24T10:07:26.829Z,4.40
2018-01-24T10:08:29.289Z,3.78
2018-01-24T10:09:31.755Z,3.50
2018-01-24T10:10:35.034Z,4.00
2018-01-24T10:11:37.554Z,3.80
2018-01-24T10:12:40.026Z,4.03
2018-01-24T10:13:42.795Z,4.12
2018-01-24T10:14:46.021Z,3.78
2018-01-24T10:15:48.499Z,3.75
2018-01-24T10:16:50.953Z,3.75
2018-01-24T10:17:53.528Z,4.10
2018-01-24T10:18:55.995Z,3.75
2018-01-24T10:19:58.470Z,3.55
2018-01-24T10:21:00.965Z,3.80
2018-01-24T10:22:04.194Z,3.70
2018-01-24T10:23:06.755Z,3.30
2018-01-24T10:24:10.014Z,3.60
2018-01-24T10:25:12.489Z,3.83
2018-01-24T10:26:14.982Z,3.47
2018-01-24T10:27:17.445Z,3.75
2018-01-24T10:28:19.917Z,4.10
2018-01-24T10:29:22.388Z,3.30
2018-01-24T10:30:24.890Z,3.60
2018-01-24T10:31:27.386Z,3.33
2018-01-24T10:32:29.913Z,3.10
2018-01-24T10:33:32.360Z,3.72
2018-01-24T10:34:34.850Z,3.20
2018-01-24T10:35:38.123Z,3.33
2018-01-24T10:36:40.608Z,3.12
2018-01-24T10:37:43.875Z,3.20
2018-01-24T10:38:46.346Z,3.25
2018-01-24T10:39:48.817Z,3.50
2018-01-24T10:40:51.262Z,3.20
2018-01-24T10:41:54.487Z,3.40
2018-01-24T10:42:56.964Z,3.53
2018-01-24T10:43:59.532Z,3.42
2018-01-24T10:45:02.062Z,3.20
2018-01-24T10:46:04.526Z,2.92
2018-01-24T10:47:07.022Z,3.28
2018-01-24T10:48:09.492Z,3.58
2018-01-24T10:49:11.990Z,3.67
2018-01-24T10:50:14.531Z,3.30
2018-01-24T10:51:16.986Z,3.10
2018-01-24T10:52:19.450Z,3.65
2018-01-24T10:53:21.906Z,3.60
2018-01-24T10:54:24.394Z,2.92
2018-01-24T10:55:26.868Z,2.85
2018-01-24T10:56:29.327Z,3.17
2018-01-24T10:57:32.559Z,3.15
2018-01-24T10:58:35.014Z,3.28
2018-01-24T10:59:37.469Z,3.30
2018-01-24T11:00:40.322Z,3.10
2018-01-24T11:01:42.830Z,2.85
2018-01-24T11:02:45.296Z,2.60
2018-01-24T11:03:48.530Z,2.53
2018-01-24T11:04:51.002Z,3.12
2018-01-24T11:05:53.464Z,2.60
2018-01-24T11:06:56.048Z,2.95
2018-01-24T11:07:58.511Z,2.80
2018-01-24T11:09:01.779Z,3.03
2018-01-24T11:10:05.018Z,3.00
2018-01-24T11:11:07.621Z,2.45
2018-01-24T11:13:18.639Z,2.70
2018-01-24T11:14:21.860Z,2.90
2018-01-24T11:15:24.327Z,3.40
2018-01-24T11:16:26.841Z,2.90
2018-01-24T11:17:30.090Z,3.00
2018-01-24T11:18:32.923Z,3.00
2018-01-24T11:19:35.546Z,2.70
2018-01-24T11:20:38.012Z,2.50
2018-01-24T11:21:40.482Z,2.97
2018-01-24T11:23:52.502Z,2.90
2018-01-24T11:24:55.751Z,2.90
2018-01-24T11:25:58.248Z,3.20
2018-01-24T11:27:01.029Z,3.03
2018-01-24T11:28:03.487Z,2.72
2018-01-24T11:29:05.975Z,2.53
2018-01-24T11:30:08.433Z,3.08
2018-01-24T11:31:10.901Z,3.20
2018-01-24T11:32:13.360Z,3.25
2018-01-24T11:33:15.830Z,3.10
2018-01-24T11:34:18.343Z,3.08
2018-01-24T11:35:20.822Z,3.30
2018-01-24T11:36:23.326Z,3.20
2018-01-24T11:37:25.835Z,3.12
2018-01-24T11:38:29.103Z,2.92
2018-01-24T11:39:31.631Z,3.15
2018-01-24T11:40:34.865Z,3.30
2018-01-24T11:41:37.347Z,3.20
2018-01-24T11:42:40.309Z,2.70
2018-01-24T11:43:42.803Z,3.17
2018-01-24T11:44:45.856Z,2.70
2018-01-24T11:45:48.317Z,3.22
2018-01-24T11:46:50.791Z,2.75
2018-01-24T11:47:53.237Z,3.40
2018-01-24T11:48:55.718Z,2.47
2018-01-24T11:49:58.194Z,3.28
2018-01-24T11:51:01.440Z,2.92
2018-01-24T11:52:04.699Z,2.70
2018-01-24T11:53:07.179Z,3.10
2018-01-24T11:54:09.744Z,2.75
2018-01-24T11:55:12.958Z,3.25
2018-01-24T11:56:15.508Z,2.95
2018-01-24T11:57:18.772Z,2.90
2018-01-24T11:58:21.299Z,3.03
2018-01-24T11:59:23.801Z,2.70
2018-01-24T12:00:27.061Z,2.97
2018-01-24T12:01:29.531Z,3.00
2018-01-24T12:02:32.132Z,3.00
2018-01-24T12:03:34.583Z,2.80
2018-01-24T12:04:37.244Z,2.80
2018-01-24T12:05:40.477Z,3.00
2018-01-24T12:06:43.792Z,2.95
2018-01-24T12:07:46.273Z,2.58
2018-01-24T12:08:48.794Z,3.03
2018-01-24T12:09:51.316Z,3.00
2018-01-24T12:10:54.475Z,2.97
2018-01-24T12:11:56.965Z,3.17
2018-01-24T12:13:00.240Z,3.33
2018-01-24T12:14:02.819Z,3.33
2018-01-24T12:15:05.420Z,2.80
2018-01-24T12:16:07.917Z,2.65
2018-01-24T12:17:10.456Z,2.62
2018-01-24T12:18:13.219Z,3.28
2018-01-24T12:19:15.718Z,2.60
2018-01-24T12:20:18.183Z,2.47
2018-01-24T12:21:20.649Z,2.83
2018-01-24T12:22:23.242Z,2.50
2018-01-24T12:23:25.712Z,2.97
2018-01-24T12:24:28.223Z,3.08
2018-01-24T12:25:30.704Z,2.45
2018-01-24T12:26:33.163Z,2.83
2018-01-24T12:27:36.538Z,2.50
2018-01-24T12:28:38.996Z,2.95
2018-01-24T12:29:41.625Z,2.70
2018-01-24T12:30:44.250Z,2.80
2018-01-24T12:31:46.702Z,2.95
2018-01-24T12:32:49.197Z,2.80
2018-01-24T12:33:51.663Z,2.87
2018-01-24T12:34:54.902Z,2.72
2018-01-24T12:35:58.143Z,2.80
2018-01-24T12:37:01.506Z,2.50
2018-01-24T12:38:03.972Z,2.30
2018-01-24T12:39:06.434Z,2.78
2018-01-24T12:40:09.669Z,2.40
2018-01-24T12:41:12.905Z,2.50
2018-01-24T12:42:15.391Z,2.60
2018-01-24T12:43:17.896Z,2.83
2018-01-24T12:44:20.364Z,2.50
2018-01-24T12:45:22.884Z,2.40
2018-01-24T12:46:25.352Z,2.30
2018-01-24T12:47:27.814Z,2.70
2018-01-24T12:48:30.306Z,2.50
2018-01-24T12:49:32.771Z,2.42
2018-01-24T12:50:35.248Z,2.20
2018-01-24T12:51:38.487Z,2.30
2018-01-24T12:52:41.852Z,2.30
2018-01-24T12:53:44.342Z,1.98
2018-01-24T12:54:47.589Z,2.30
2018-01-24T12:55:50.844Z,2.17
2018-01-24T12:56:54.070Z,2.25
2018-01-24T12:57:57.335Z,2.20
2018-01-24T12:58:59.868Z,2.10
2018-01-24T13:00:02.337Z,2.10
2018-01-24T13:01:04.794Z,1.95
2018-01-24T13:02:08.082Z,2.28
2018-01-24T13:03:10.618Z,1.87
2018-01-24T13:04:13.098Z,2.42
2018-01-24T13:05:17.013Z,2.20
2018-01-24T13:06:19.516Z,2.15
2018-01-24T13:07:22.039Z,2.60
2018-01-24T13:08:24.546Z,2.20
2018-01-24T13:09:27.172Z,2.55
2018-01-24T13:10:29.637Z,2.33
2018-01-24T13:11:33.848Z,2.60
2018-01-24T13:12:37.189Z,2.70
2018-01-24T13:13:40.820Z,2.45
2018-01-24T13:14:43.530Z,2.35
2018-01-24T13:15:46.048Z,2.70
2018-01-24T13:16:48.498Z,2.40
2018-01-24T13:17:52.466Z,2.30
2018-01-24T13:18:56.009Z,2.33
2018-01-24T13:19:59.316Z,2.40
2018-01-24T13:21:01.782Z,2.30
2018-01-24T13:22:04.290Z,2.70
2018-01-24T13:23:06.769Z,2.17
2018-01-24T13:24:09.752Z,2.55
2018-01-24T13:25:13.569Z,2.12
2018-01-24T13:26:20.272Z,2.62
2018-01-24T13:27:23.960Z,2.00
2018-01-24T13:28:30.009Z,2.70
2018-01-24T13:29:34.726Z,2.30
2018-01-24T13:30:41.041Z,2.40
2018-01-24T13:31:44.349Z,2.60
2018-01-24T13:32:47.564Z,2.40
2018-01-24T13:33:50.038Z,2.50
2018-01-24T13:34:52.534Z,2.45
2018-01-24T13:35:55.074Z,2.20
2018-01-24T13:36:58.355Z,2.30
2018-01-24T13:38:00.884Z,2.28
2018-01-24T13:39:04.079Z,2.45
2018-01-24T13:40:07.318Z,2.20
2018-01-24T13:41:10.583Z,2.40
2018-01-24T13:42:13.054Z,2.40
2018-01-24T13:43:15.512Z,2.08
2018-01-24T13:44:18.750Z,2.33
2018-01-24T13:45:22.032Z,2.15
2018-01-24T13:46:24.630Z,2.10
2018-01-24T13:47:27.911Z,1.70
2018-01-24T13:48:30.407Z,1.95
2018-01-24T13:49:32.879Z,2.00
2018-01-24T13:50:35.343Z,1.75
2018-01-24T13:51:38.694Z,1.90
2018-01-24T13:52:41.917Z,2.05
2018-01-24T13:53:44.471Z,1.73
2018-01-24T13:54:46.941Z,2.12
2018-01-24T13:55:49.402Z,1.90
2018-01-24T13:56:52.666Z,2.30
2018-01-24T13:57:55.185Z,2.40
2018-01-24T13:58:58.449Z,2.25
2018-01-24T14:00:00.943Z,2.20
2018-01-24T14:01:04.196Z,2.45
2018-01-24T14:02:07.443Z,2.30
2018-01-24T14:03:09.998Z,1.95
2018-01-24T14:04:12.498Z,2.25
2018-01-24T14:05:14.968Z,2.20
2018-01-24T14:06:17.456Z,2.05
2018-01-24T14:07:19.927Z,2.22
2018-01-24T14:08:22.383Z,2.22
2018-01-24T14:09:24.942Z,2.40
2018-01-24T14:10:27.402Z,2.20
2018-01-24T14:11:29.909Z,2.22
2018-01-24T14:12:32.407Z,2.40
2018-01-24T14:13:35.033Z,2.08
2018-01-24T14:14:37.521Z,1.90
2018-01-24T14:15:40.951Z,2.50
2018-01-24T14:16:43.520Z,2.50
2018-01-24T14:17:46.002Z,2.60
2018-01-24T14:18:48.476Z,2.35
2018-01-24T14:19:51.657Z,2.58
2018-01-24T14:20:54.130Z,2.45
2018-01-24T14:21:57.373Z,2.10
2018-01-24T14:23:00.690Z,2.25
2018-01-24T14:24:03.160Z,2.50
2018-01-24T14:25:05.676Z,2.25
2018-01-24T14:26:08.150Z,2.60
2018-01-24T14:27:11.543Z,2.42
2018-01-24T14:28:14.030Z,2.17
2018-01-24T14:29:16.620Z,2.47
2018-01-24T14:30:19.125Z,2.40
2018-01-24T14:31:21.595Z,2.28
2018-01-24T14:32:24.046Z,2.20
2018-01-24T14:33:27.316Z,2.60
2018-01-24T14:34:29.785Z,2.40
2018-01-24T14:35:32.271Z,2.30
2018-01-24T14:36:34.753Z,2.45
2018-01-24T14:37:37.217Z,2.40
2018-01-24T14:38:39.684Z,2.25
2018-01-24T14:39:42.258Z,2.58